Time;durP1;ratioP1;P1;durP2;ratioP2;P2;SDS_P1;SDS_P2;PMS_P1;PMS_P2;Temp;Humidity;BMP_temperature;BMP_pressure;BME280_temperature;BME280_humidity;BME280_pressure;Samples;Min_cycle;Max_cycle;Signal;HPM_P1;HPM_P2
2021/07/14 00:02:18;;;;;;;0.10;0.10;;;;;;;;;;5095758;28;20036;-72
2021/07/14 00:04:44;;;;;;;0.10;0.10;;;;;;;;;;5095260;28;20093;-73
2021/07/14 00:07:10;;;;;;;0.10;0.10;;;;;;;;;;5095419;28;20042;-72
2021/07/14 00:09:36;;;;;;;0.10;0.10;;;;;;;;;;5095740;28;20530;-72
2021/07/14 00:12:06;;;;;;;0.10;0.10;;;;;;;;;;5094855;28;20044;-72
2021/07/14 00:15:00;;;;;;;0.10;0.10;;;;;;;;;;5095263;28;20043;-72
2021/07/14 00:22:34;;;;;;;0.10;0.10;;;;;;;;;;5094676;28;20050;-72
2021/07/14 00:25:01;;;;;;;0.10;0.10;;;;;;;;;;5095041;28;20047;-72
2021/07/14 00:27:27;;;;;;;0.20;0.20;;;;;;;;;;5095211;28;20119;-72
2021/07/14 00:29:56;;;;;;;0.10;0.10;;;;;;;;;;5094777;28;20101;-72
2021/07/14 00:32:23;;;;;;;0.10;0.10;;;;;;;;;;5094673;28;20036;-72
2021/07/14 00:34:49;;;;;;;0.10;0.10;;;;;;;;;;5094896;28;20063;-72
2021/07/14 00:37:18;;;;;;;0.10;0.10;;;;;;;;;;5094676;28;20075;-72
2021/07/14 00:39:44;;;;;;;0.10;0.10;;;;;;;;;;5094548;28;20426;-72
2021/07/14 00:42:10;;;;;;;0.10;0.10;;;;;;;;;;5094890;28;20040;-72
2021/07/14 00:44:36;;;;;;;0.10;0.10;;;;;;;;;;5094714;28;20040;-72
2021/07/14 00:47:03;;;;;;;0.10;0.10;;;;;;;;;;5095387;28;20040;-72
2021/07/14 00:49:30;;;;;;;0.10;0.10;;;;;;;;;;5094880;28;20043;-72
2021/07/14 00:51:57;;;;;;;0.10;0.10;;;;;;;;;;5094687;28;20082;-72
2021/07/14 00:54:23;;;;;;;0.20;0.20;;;;;;;;;;5095061;28;20520;-72
2021/07/14 00:56:49;;;;;;;0.10;0.10;;;;;;;;;;5094840;28;20047;-72
2021/07/14 00:59:15;;;;;;;0.10;0.10;;;;;;;;;;5095248;28;20046;-73
2021/07/14 01:01:44;;;;;;;0.20;0.20;;;;;;;;;;5094403;28;20102;-72
2021/07/14 01:04:12;;;;;;;0.28;0.20;;;;;;;;;;5094494;28;20070;-72
2021/07/14 01:06:53;;;;;;;0.30;0.30;;;;;;;;;;5094927;28;20482;-72
2021/07/14 01:09:19;;;;;;;;;;;;;;;;;;5095057;28;20036;-72
2021/07/14 01:11:46;;;;;;;0.20;0.20;;;;;;;;;;5094305;28;20298;-72
2021/07/14 01:14:25;;;;;;;0.10;0.10;;;;;;;;;;5094570;28;20121;-72
2021/07/14 01:16:59;;;;;;;0.30;0.30;;;;;;;;;;5094217;28;20040;-72
2021/07/14 01:19:34;;;;;;;0.10;0.10;;;;;;;;;;5094053;28;20044;-72
2021/07/14 01:22:03;;;;;;;0.10;0.10;;;;;;;;;;5094717;28;20096;-72
2021/07/14 01:24:56;;;;;;;0.10;0.10;;;;;;;;;;5094436;28;20050;-72
2021/07/14 01:27:22;;;;;;;0.10;0.10;;;;;;;;;;5092174;28;20032;-72
2021/07/14 01:29:50;;;;;;;0.10;0.10;;;;;;;;;;5094494;28;20105;-72
2021/07/14 01:32:18;;;;;;;0.10;0.10;;;;;;;;;;5094547;28;20040;-72
2021/07/14 01:34:46;;;;;;;0.30;0.30;;;;;;;;;;5094193;28;20050;-72
2021/07/14 01:37:15;;;;;;;0.10;0.10;;;;;;;;;;5094061;28;20036;-72
2021/07/14 01:39:42;;;;;;;0.10;0.10;;;;;;;;;;5093719;28;20407;-72
2021/07/14 01:42:10;;;;;;;0.10;0.10;;;;;;;;;;5094296;28;20097;-72
2021/07/14 01:44:37;;;;;;;0.10;0.10;;;;;;;;;;5094704;28;20044;-72
2021/07/14 01:47:03;;;;;;;0.10;0.10;;;;;;;;;;5094463;28;20040;-72
2021/07/14 01:49:31;;;;;;;0.20;0.20;;;;;;;;;;5093479;28;20047;-72
2021/07/14 01:52:02;;;;;;;0.10;0.10;;;;;;;;;;5094116;28;20028;-72
2021/07/14 01:54:28;;;;;;;;;;;;;;;;;;5094383;28;20066;-72
2021/07/14 01:56:55;;;;;;;0.10;0.10;;;;;;;;;;5094675;28;20411;-72
2021/07/14 01:59:22;;;;;;;1.35;0.30;;;;;;;;;;5094402;28;20047;-72
2021/07/14 02:01:48;;;;;;;0.10;0.10;;;;;;;;;;5094080;28;20104;-72
2021/07/14 02:04:31;;;;;;;0.10;0.10;;;;;;;;;;5096612;28;20048;-73
2021/07/14 02:07:04;;;;;;;0.10;0.10;;;;;;;;;;5098262;28;20036;-72
2021/07/14 02:09:32;;;;;;;0.10;0.10;;;;;;;;;;5098097;28;20122;-72
2021/07/14 02:11:58;;;;;;;0.10;0.10;;;;;;;;;;5097673;28;20044;-72
2021/07/14 02:14:28;;;;;;;0.10;0.10;;;;;;;;;;5097973;28;20040;-72
2021/07/14 02:16:54;;;;;;;0.10;0.10;;;;;;;;;;5097944;28;20533;-72
2021/07/14 02:19:22;;;;;;;0.10;0.10;;;;;;;;;;5097637;28;20040;-72
2021/07/14 02:21:48;;;;;;;0.10;0.10;;;;;;;;;;5097722;28;20639;-72
2021/07/14 02:24:15;;;;;;;0.10;0.10;;;;;;;;;;5097500;28;20050;-72
2021/07/14 02:26:42;;;;;;;0.10;0.10;;;;;;;;;;5097361;28;20503;-72
2021/07/14 02:29:09;;;;;;;0.10;0.10;;;;;;;;;;5097768;28;20043;-72
2021/07/14 02:31:35;;;;;;;0.10;0.10;;;;;;;;;;5097350;28;20066;-72
2021/07/14 02:34:01;;;;;;;0.20;0.20;;;;;;;;;;5097381;28;20093;-72
2021/07/14 02:36:29;;;;;;;0.10;0.10;;;;;;;;;;5097585;28;20040;-72
2021/07/14 02:39:01;;;;;;;0.10;0.10;;;;;;;;;;5097442;28;20078;-72
2021/07/14 02:41:31;;;;;;;0.10;0.10;;;;;;;;;;5097166;28;20044;-72
2021/07/14 02:44:09;;;;;;;0.10;0.10;;;;;;;;;;5097923;28;20032;-72
2021/07/14 02:46:37;;;;;;;0.10;0.10;;;;;;;;;;5097638;28;20040;-72
2021/07/14 02:49:05;;;;;;;0.10;0.10;;;;;;;;;;5097092;28;20051;-72
2021/07/14 02:51:33;;;;;;;0.10;0.10;;;;;;;;;;5097208;28;20047;-72
2021/07/14 02:54:01;;;;;;;0.10;0.10;;;;;;;;;;5097225;28;20127;-72
2021/07/14 02:56:30;;;;;;;0.10;0.10;;;;;;;;;;5097112;28;20036;-72
2021/07/14 02:58:58;;;;;;;0.10;0.10;;;;;;;;;;5096951;28;20040;-72
2021/07/14 03:01:25;;;;;;;0.10;0.10;;;;;;;;;;5097029;28;20075;-72
2021/07/14 03:03:52;;;;;;;0.10;0.10;;;;;;;;;;5096851;28;20040;-72
2021/07/14 03:06:18;;;;;;;0.10;0.10;;;;;;;;;;5097228;28;20109;-72
2021/07/14 03:08:47;;;;;;;0.10;0.10;;;;;;;;;;5096856;28;20047;-72
2021/07/14 03:11:15;;;;;;;0.10;0.10;;;;;;;;;;5096931;28;20048;-72
2021/07/14 03:13:41;;;;;;;0.10;0.10;;;;;;;;;;5096316;28;20506;-72
2021/07/14 03:16:08;;;;;;;0.10;0.10;;;;;;;;;;5095828;28;20039;-72
2021/07/14 03:18:34;;;;;;;0.10;0.10;;;;;;;;;;5096535;28;20040;-72
2021/07/14 03:21:01;;;;;;;0.10;0.10;;;;;;;;;;5096493;28;20048;-72
2021/07/14 03:23:29;;;;;;;0.10;0.10;;;;;;;;;;5096624;28;20046;-72
2021/07/14 03:25:56;;;;;;;0.10;0.10;;;;;;;;;;5096846;28;20122;-72
2021/07/14 03:28:23;;;;;;;0.10;0.10;;;;;;;;;;5096520;28;20042;-72
2021/07/14 03:30:49;;;;;;;0.10;0.10;;;;;;;;;;5096726;28;20082;-72
2021/07/14 03:33:16;;;;;;;0.10;0.10;;;;;;;;;;5096454;28;20119;-72
2021/07/14 03:35:43;;;;;;;0.10;0.10;;;;;;;;;;5096268;28;20039;-72
2021/07/14 03:38:10;;;;;;;0.10;0.10;;;;;;;;;;5096067;28;20040;-72
2021/07/14 03:40:38;;;;;;;0.20;0.20;;;;;;;;;;5096235;28;20055;-72
2021/07/14 03:43:05;;;;;;;0.10;0.10;;;;;;;;;;5096253;28;20040;-72
2021/07/14 03:45:32;;;;;;;0.10;0.10;;;;;;;;;;5095537;28;20043;-72
2021/07/14 03:47:59;;;;;;;0.10;0.10;;;;;;;;;;5095559;28;20040;-72
2021/07/14 03:50:25;;;;;;;0.10;0.10;;;;;;;;;;5095559;28;20043;-72
2021/07/14 03:52:52;;;;;;;0.10;0.10;;;;;;;;;;5095917;28;20123;-72
2021/07/14 03:55:18;;;;;;;0.10;0.10;;;;;;;;;;5095443;28;20040;-72
2021/07/14 03:57:45;;;;;;;0.10;0.10;;;;;;;;;;5095958;28;20044;-72
2021/07/14 04:00:11;;;;;;;0.10;0.10;;;;;;;;;;5095633;28;20047;-72
2021/07/14 04:02:39;;;;;;;0.10;0.10;;;;;;;;;;5095573;28;20040;-71
2021/07/14 04:05:06;;;;;;;0.10;0.10;;;;;;;;;;5095030;28;20115;-72
2021/07/14 04:07:33;;;;;;;0.10;0.10;;;;;;;;;;5095874;28;20479;-72
2021/07/14 04:10:01;;;;;;;0.22;0.20;;;;;;;;;;5095239;28;20502;-72
2021/07/14 04:12:27;;;;;;;0.10;0.10;;;;;;;;;;5095411;28;20096;-72
2021/07/14 04:14:53;;;;;;;0.10;0.10;;;;;;;;;;5095953;28;20090;-72
2021/07/14 04:17:20;;;;;;;0.10;0.10;;;;;;;;;;5095629;28;20482;-72
2021/07/14 04:19:46;;;;;;;0.10;0.10;;;;;;;;;;5095386;28;20040;-72
2021/07/14 04:22:14;;;;;;;0.10;0.10;;;;;;;;;;5095542;28;20105;-72
2021/07/14 04:24:41;;;;;;;0.10;0.10;;;;;;;;;;5096274;28;20060;-72
2021/07/14 04:27:08;;;;;;;0.10;0.10;;;;;;;;;;5095129;28;20035;-72
2021/07/14 04:29:34;;;;;;;0.10;0.10;;;;;;;;;;5095751;28;20043;-72
2021/07/14 04:32:00;;;;;;;0.10;0.10;;;;;;;;;;5095620;28;20040;-72
2021/07/14 04:34:26;;;;;;;0.10;0.10;;;;;;;;;;5095193;28;20124;-72
2021/07/14 04:36:53;;;;;;;0.10;0.10;;;;;;;;;;5095327;28;20039;-72
2021/07/14 04:39:19;;;;;;;0.10;0.10;;;;;;;;;;5095239;28;20048;-72
2021/07/14 04:41:45;;;;;;;0.10;0.10;;;;;;;;;;5095517;28;20070;-71
2021/07/14 04:44:14;;;;;;;0.10;0.10;;;;;;;;;;5095790;28;20036;-72
2021/07/14 04:46:40;;;;;;;0.10;0.10;;;;;;;;;;5095098;28;20036;-72
2021/07/14 04:49:07;;;;;;;0.10;0.10;;;;;;;;;;5095500;28;20043;-72
2021/07/14 04:51:33;;;;;;;0.10;0.10;;;;;;;;;;5095134;28;20070;-72
2021/07/14 04:54:00;;;;;;;0.10;0.10;;;;;;;;;;5095086;28;20036;-72
2021/07/14 04:56:26;;;;;;;0.20;0.20;;;;;;;;;;5095585;28;20050;-72
2021/07/14 04:58:52;;;;;;;0.20;0.20;;;;;;;;;;5094981;28;20502;-72
2021/07/14 05:01:18;;;;;;;0.10;0.10;;;;;;;;;;5094935;28;20513;-72
2021/07/14 05:03:45;;;;;;;0.20;0.20;;;;;;;;;;5094761;28;20088;-72
2021/07/14 05:06:12;;;;;;;0.10;0.10;;;;;;;;;;5094990;28;20044;-72
2021/07/14 05:08:38;;;;;;;0.10;0.10;;;;;;;;;;5094693;28;20040;-72
2021/07/14 05:11:05;;;;;;;0.10;0.10;;;;;;;;;;5094685;28;20058;-71
2021/07/14 05:13:31;;;;;;;0.10;0.10;;;;;;;;;;5094913;28;20075;-71
2021/07/14 05:15:57;;;;;;;0.10;0.10;;;;;;;;;;5094589;28;20066;-71
2021/07/14 05:18:23;;;;;;;0.10;0.10;;;;;;;;;;5094549;28;20048;-71
2021/07/14 05:20:50;;;;;;;0.10;0.10;;;;;;;;;;5094324;28;20437;-71
2021/07/14 05:23:16;;;;;;;0.10;0.10;;;;;;;;;;5094440;28;20156;-71
2021/07/14 05:25:43;;;;;;;0.10;0.10;;;;;;;;;;5094488;28;20522;-71
2021/07/14 05:28:09;;;;;;;2.03;0.90;;;;;;;;;;5094542;28;20124;-72
2021/07/14 05:30:39;;;;;;;0.10;0.10;;;;;;;;;;5094579;28;20079;-72
2021/07/14 05:33:05;;;;;;;0.25;0.13;;;;;;;;;;5094043;28;20123;-72
2021/07/14 05:35:31;;;;;;;0.10;0.10;;;;;;;;;;5094001;28;20126;-72
2021/07/14 05:37:57;;;;;;;0.20;0.20;;;;;;;;;;5094887;28;20070;-72
2021/07/14 05:40:23;;;;;;;0.10;0.10;;;;;;;;;;5098922;28;20040;-72
2021/07/14 05:42:50;;;;;;;0.10;0.10;;;;;;;;;;5098286;28;20132;-72
2021/07/14 05:45:17;;;;;;;0.10;0.10;;;;;;;;;;5098295;28;20032;-72
2021/07/14 05:47:43;;;;;;;0.35;0.35;;;;;;;;;;5098224;28;20051;-72
2021/07/14 05:50:10;;;;;;;0.10;0.10;;;;;;;;;;5098008;28;20040;-72
2021/07/14 05:52:36;;;;;;;0.10;0.10;;;;;;;;;;5098094;28;20036;-72
2021/07/14 05:55:03;;;;;;;0.10;0.10;;;;;;;;;;5098352;28;20036;-72
2021/07/14 05:57:30;;;;;;;0.10;0.10;;;;;;;;;;5097942;28;20038;-72
2021/07/14 05:59:56;;;;;;;0.10;0.10;;;;;;;;;;5098138;28;20040;-72
2021/07/14 06:02:22;;;;;;;0.10;0.10;;;;;;;;;;5098212;28;20161;-72
2021/07/14 06:04:48;;;;;;;0.10;0.10;;;;;;;;;;5097559;28;20047;-72
2021/07/14 06:07:14;;;;;;;0.10;0.10;;;;;;;;;;5097527;28;20055;-72
2021/07/14 06:09:40;;;;;;;0.10;0.10;;;;;;;;;;5097854;28;20048;-72
2021/07/14 06:12:07;;;;;;;0.10;0.10;;;;;;;;;;5097368;28;20077;-72
2021/07/14 06:14:33;;;;;;;0.10;0.10;;;;;;;;;;5097399;28;20399;-72
2021/07/14 06:16:59;;;;;;;0.20;0.20;;;;;;;;;;5097615;28;20125;-72
2021/07/14 06:19:26;;;;;;;0.20;0.20;;;;;;;;;;5097585;28;20043;-72
2021/07/14 06:21:52;;;;;;;0.10;0.10;;;;;;;;;;5097209;28;20036;-72
2021/07/14 06:24:19;;;;;;;0.10;0.10;;;;;;;;;;5097570;28;20028;-72
2021/07/14 06:26:45;;;;;;;0.10;0.10;;;;;;;;;;5097501;28;20498;-72
2021/07/14 06:29:11;;;;;;;0.10;0.10;;;;;;;;;;5096916;28;20050;-72
2021/07/14 06:31:37;;;;;;;0.10;0.10;;;;;;;;;;5097312;28;20047;-72
2021/07/14 06:34:03;;;;;;;0.10;0.10;;;;;;;;;;5097184;28;20070;-72
2021/07/14 06:36:30;;;;;;;0.13;0.13;;;;;;;;;;5097017;28;20044;-72
2021/07/14 06:39:01;;;;;;;0.10;0.10;;;;;;;;;;5097164;28;20081;-72
2021/07/14 06:41:27;;;;;;;0.10;0.10;;;;;;;;;;5098307;28;20119;-72
2021/07/14 06:43:54;;;;;;;0.10;0.10;;;;;;;;;;5096854;28;20494;-72
2021/07/14 06:46:20;;;;;;;0.10;0.10;;;;;;;;;;5096748;28;20070;-72
2021/07/14 06:48:46;;;;;;;0.10;0.10;;;;;;;;;;5096673;28;20036;-72
2021/07/14 06:51:13;;;;;;;0.20;0.20;;;;;;;;;;5097366;28;20071;-72
2021/07/14 06:53:39;;;;;;;0.10;0.10;;;;;;;;;;5096848;28;20032;-72
2021/07/14 06:56:05;;;;;;;0.10;0.10;;;;;;;;;;5096635;28;20097;-72
2021/07/14 06:58:36;;;;;;;0.10;0.10;;;;;;;;;;5096860;28;20036;-72
2021/07/14 07:01:02;;;;;;;0.10;0.10;;;;;;;;;;5097343;28;20048;-72
2021/07/14 07:03:28;;;;;;;0.10;0.10;;;;;;;;;;5096900;28;20040;-72
2021/07/14 07:05:54;;;;;;;0.10;0.10;;;;;;;;;;5096250;28;20075;-72
2021/07/14 07:08:20;;;;;;;0.10;0.10;;;;;;;;;;5096856;28;20490;-72
2021/07/14 07:10:47;;;;;;;0.10;0.10;;;;;;;;;;5096872;28;20136;-72
2021/07/14 07:13:16;;;;;;;0.10;0.10;;;;;;;;;;5096720;28;20070;-72
2021/07/14 07:15:43;;;;;;;0.20;0.20;;;;;;;;;;5096772;28;20070;-72
2021/07/14 07:18:10;;;;;;;0.10;0.10;;;;;;;;;;5096753;28;20040;-72
2021/07/14 07:20:36;;;;;;;0.10;0.10;;;;;;;;;;5095854;28;20047;-72
2021/07/14 07:23:02;;;;;;;0.20;0.20;;;;;;;;;;5096572;28;20075;-72
2021/07/14 07:25:28;;;;;;;0.10;0.10;;;;;;;;;;5096233;28;20036;-72
2021/07/14 07:27:58;;;;;;;0.35;0.25;;;;;;;;;;5096303;28;20131;-72
2021/07/14 07:30:24;;;;;;;0.10;0.10;;;;;;;;;;5096387;28;20583;-72
2021/07/14 07:32:51;;;;;;;0.20;0.20;;;;;;;;;;5096317;28;20831;-72
2021/07/14 07:35:17;;;;;;;0.20;0.20;;;;;;;;;;5096174;28;20040;-72
2021/07/14 07:37:43;;;;;;;0.10;0.10;;;;;;;;;;5096295;28;20177;-72
2021/07/14 07:40:09;;;;;;;0.22;0.22;;;;;;;;;;5096164;28;20040;-72
2021/07/14 07:42:36;;;;;;;0.20;0.20;;;;;;;;;;5095956;28;20044;-72
2021/07/14 07:45:03;;;;;;;0.10;0.10;;;;;;;;;;5096169;28;20066;-72
2021/07/14 07:47:29;;;;;;;0.10;0.10;;;;;;;;;;5095805;28;20507;-72
2021/07/14 07:49:55;;;;;;;0.50;0.50;;;;;;;;;;5096060;28;20051;-72
2021/07/14 07:52:22;;;;;;;0.30;0.20;;;;;;;;;;5096021;28;20036;-72
2021/07/14 07:54:49;;;;;;;0.10;0.10;;;;;;;;;;5095921;28;20040;-72
2021/07/14 07:57:15;;;;;;;0.32;0.32;;;;;;;;;;5095920;28;20046;-72
2021/07/14 07:59:41;;;;;;;0.10;0.10;;;;;;;;;;5095827;28;20048;-72
2021/07/14 08:02:07;;;;;;;0.20;0.20;;;;;;;;;;5094924;28;20498;-72
2021/07/14 08:04:34;;;;;;;0.45;0.45;;;;;;;;;;5095613;28;20040;-72
2021/07/14 08:07:00;;;;;;;0.10;0.10;;;;;;;;;;5095863;28;20490;-72
2021/07/14 08:09:26;;;;;;;0.10;0.10;;;;;;;;;;5095480;28;20112;-72
2021/07/14 08:11:53;;;;;;;0.20;0.20;;;;;;;;;;5095100;28;20071;-72
2021/07/14 08:14:19;;;;;;;0.20;0.20;;;;;;;;;;5095676;28;20135;-72
2021/07/14 08:16:46;;;;;;;0.32;0.32;;;;;;;;;;5095293;28;20043;-72
2021/07/14 08:19:12;;;;;;;0.20;0.20;;;;;;;;;;5094870;28;20051;-72
2021/07/14 08:21:38;;;;;;;0.10;0.10;;;;;;;;;;5095648;28;20480;-72
2021/07/14 08:24:05;;;;;;;0.10;0.10;;;;;;;;;;5095407;28;20043;-72
2021/07/14 08:26:31;;;;;;;0.50;0.50;;;;;;;;;;5095506;28;20040;-72
2021/07/14 08:28:57;;;;;;;0.10;0.10;;;;;;;;;;5095313;28;20039;-72
2021/07/14 08:31:23;;;;;;;0.10;0.10;;;;;;;;;;5093780;28;20032;-72
2021/07/14 08:33:50;;;;;;;0.43;0.43;;;;;;;;;;5092893;28;20043;-72
2021/07/14 08:36:16;;;;;;;0.10;0.10;;;;;;;;;;5091175;28;20040;-72
2021/07/14 08:38:42;;;;;;;0.10;0.10;;;;;;;;;;5093954;28;20066;-71
2021/07/14 08:41:10;;;;;;;0.10;0.10;;;;;;;;;;5094860;28;20048;-72
2021/07/14 08:43:37;;;;;;;0.10;0.10;;;;;;;;;;5093672;28;20048;-71
2021/07/14 08:46:04;;;;;;;0.28;0.28;;;;;;;;;;5094578;28;20081;-72
2021/07/14 08:48:32;;;;;;;0.10;0.10;;;;;;;;;;5087062;28;20396;-72
2021/07/14 08:50:59;;;;;;;0.10;0.10;;;;;;;;;;5081705;28;20071;-73
2021/07/14 08:53:25;;;;;;;0.13;0.13;;;;;;;;;;5074487;28;20488;-72
2021/07/14 08:55:51;;;;;;;0.10;0.10;;;;;;;;;;5074775;28;20068;-72
2021/07/14 08:58:19;;;;;;;0.20;0.20;;;;;;;;;;5074402;28;20072;-72
2021/07/14 09:00:46;;;;;;;0.10;0.10;;;;;;;;;;5074457;28;20478;-73
2021/07/14 09:03:12;;;;;;;0.20;0.20;;;;;;;;;;5074074;28;20048;-73
2021/07/14 09:05:38;;;;;;;0.20;0.20;;;;;;;;;;5072522;28;20036;-73
2021/07/14 09:08:05;;;;;;;0.22;0.22;;;;;;;;;;5074179;28;20044;-73
2021/07/14 09:10:31;;;;;;;0.20;0.20;;;;;;;;;;5087058;28;20123;-73
2021/07/14 09:12:58;;;;;;;0.20;0.20;;;;;;;;;;5097451;28;20120;-73
2021/07/14 09:15:30;;;;;;;0.10;0.10;;;;;;;;;;5097722;28;20109;-72
2021/07/14 09:17:58;;;;;;;0.10;0.10;;;;;;;;;;5098914;28;20089;-73
2021/07/14 09:20:26;;;;;;;1.02;0.40;;;;;;;;;;5098958;28;20533;-74
2021/07/14 09:23:06;;;;;;;1.55;0.73;;;;;;;;;;5098869;28;20131;-72
2021/07/14 09:25:40;;;;;;;0.10;0.10;;;;;;;;;;5098464;28;20039;-73
2021/07/14 09:28:07;;;;;;;0.20;0.20;;;;;;;;;;5098660;28;20036;-73
2021/07/14 09:30:34;;;;;;;0.20;0.20;;;;;;;;;;5098048;28;20489;-73
2021/07/14 09:33:01;;;;;;;0.10;0.10;;;;;;;;;;5098113;28;20066;-73
2021/07/14 09:35:37;;;;;;;0.38;0.38;;;;;;;;;;5098121;28;20043;-73
2021/07/14 09:38:09;;;;;;;0.20;0.20;;;;;;;;;;5098509;28;20067;-73
2021/07/14 09:40:35;;;;;;;0.10;0.10;;;;;;;;;;5098384;28;20043;-73
2021/07/14 09:43:04;;;;;;;0.20;0.20;;;;;;;;;;5098130;28;20044;-73
2021/07/14 09:45:37;;;;;;;0.40;0.40;;;;;;;;;;5098494;28;20039;-73
2021/07/14 09:48:04;;;;;;;0.10;0.10;;;;;;;;;;5098767;28;20043;-73
2021/07/14 09:50:31;;;;;;;0.10;0.10;;;;;;;;;;5097998;28;20372;-72
2021/07/14 09:53:05;;;;;;;0.10;0.10;;;;;;;;;;5098413;28;20089;-73
2021/07/14 09:55:31;;;;;;;0.10;0.10;;;;;;;;;;5098034;28;20506;-73
2021/07/14 09:58:11;;;;;;;0.10;0.10;;;;;;;;;;5097773;28;20043;-72
2021/07/14 10:00:55;;;;;;;0.10;0.10;;;;;;;;;;5096800;28;20574;-71
2021/07/14 10:03:23;;;;;;;0.63;0.63;;;;;;;;;;5076969;28;20049;-70
2021/07/14 10:05:50;;;;;;;0.10;0.10;;;;;;;;;;5076868;28;20543;-72
2021/07/14 10:08:17;;;;;;;0.10;0.10;;;;;;;;;;5075926;28;20041;-72
2021/07/14 10:10:43;;;;;;;0.10;0.10;;;;;;;;;;5077471;28;20080;-72
2021/07/14 10:13:10;;;;;;;0.10;0.10;;;;;;;;;;5077213;28;20143;-73
2021/07/14 10:15:37;;;;;;;0.20;0.20;;;;;;;;;;5076960;28;20111;-72
2021/07/14 10:18:03;;;;;;;0.10;0.10;;;;;;;;;;5076987;28;20041;-72
2021/07/14 10:20:30;;;;;;;0.10;0.10;;;;;;;;;;5077016;28;20102;-71
2021/07/14 10:23:07;;;;;;;0.10;0.10;;;;;;;;;;5077065;28;20036;-72
2021/07/14 10:25:35;;;;;;;0.13;0.13;;;;;;;;;;5076337;28;20032;-73
2021/07/14 10:28:02;;;;;;;0.10;0.10;;;;;;;;;;5077105;28;20502;-72
2021/07/14 10:30:29;;;;;;;0.13;0.13;;;;;;;;;;5077111;28;20044;-72
2021/07/14 10:32:56;;;;;;;0.10;0.10;;;;;;;;;;5077059;28;20055;-71
2021/07/14 10:35:23;;;;;;;0.10;0.10;;;;;;;;;;5076930;28;20063;-72
2021/07/14 10:37:52;;;;;;;0.10;0.10;;;;;;;;;;5076466;28;20032;-72
2021/07/14 10:40:20;;;;;;;0.57;0.57;;;;;;;;;;5075696;28;20433;-72
2021/07/14 10:42:47;;;;;;;0.70;0.38;;;;;;;;;;5076912;28;20072;-71
2021/07/14 10:45:13;;;;;;;0.10;0.10;;;;;;;;;;5077178;28;20047;-72
2021/07/14 10:47:40;;;;;;;0.35;0.35;;;;;;;;;;5077060;28;20036;-72
2021/07/14 10:50:07;;;;;;;0.30;0.30;;;;;;;;;;5076664;28;20119;-72
2021/07/14 10:52:33;;;;;;;0.45;0.45;;;;;;;;;;5076452;28;20040;-71
2021/07/14 10:55:01;;;;;;;0.10;0.10;;;;;;;;;;5076669;28;20041;-72
2021/07/14 10:57:28;;;;;;;0.22;0.22;;;;;;;;;;5076518;28;20047;-71
2021/07/14 10:59:54;;;;;;;0.20;0.20;;;;;;;;;;5076523;28;20102;-72
2021/07/14 11:02:37;;;;;;;0.47;0.47;;;;;;;;;;5076506;28;20124;-71
2021/07/14 11:05:03;;;;;;;0.13;0.13;;;;;;;;;;5076029;28;20395;-72
2021/07/14 11:07:37;;;;;;;0.20;0.20;;;;;;;;;;5076088;28;20045;-72
2021/07/14 11:10:23;;;;;;;0.20;0.20;;;;;;;;;;5075974;28;20048;-72
2021/07/14 11:12:49;;;;;;;0.20;0.20;;;;;;;;;;5075852;28;20139;-71
2021/07/14 11:15:32;;;;;;;0.20;0.20;;;;;;;;;;5076016;28;20048;-71
2021/07/14 11:17:58;;;;;;;0.15;0.15;;;;;;;;;;5075829;28;20511;-71
2021/07/14 11:20:36;;;;;;;0.10;0.10;;;;;;;;;;5081364;28;20039;-71
2021/07/14 11:23:22;;;;;;;0.10;0.10;;;;;;;;;;5078910;28;20419;-71
2021/07/14 11:25:55;;;;;;;0.10;0.10;;;;;;;;;;5075717;28;20067;-72
2021/07/14 11:28:23;;;;;;;0.35;0.35;;;;;;;;;;5075809;28;20040;-72
2021/07/14 11:30:51;;;;;;;0.20;0.20;;;;;;;;;;5075985;28;20048;-72
2021/07/14 11:33:28;;;;;;;0.10;0.10;;;;;;;;;;5075429;28;20045;-72
2021/07/14 11:36:00;;;;;;;0.32;0.32;;;;;;;;;;5074695;28;20032;-72
2021/07/14 11:38:47;;;;;;;0.20;0.20;;;;;;;;;;5075592;28;20074;-73
2021/07/14 11:41:20;;;;;;;0.17;0.17;;;;;;;;;;5075829;28;20569;-73
2021/07/14 11:43:47;;;;;;;0.30;0.30;;;;;;;;;;5075636;28;20043;-73
2021/07/14 11:46:20;;;;;;;0.10;0.10;;;;;;;;;;5075508;28;20036;-73
2021/07/14 11:48:50;;;;;;;0.25;0.25;;;;;;;;;;5087091;28;20032;-72
2021/07/14 11:51:16;;;;;;;0.40;0.40;;;;;;;;;;5095277;28;20035;-72
2021/07/14 11:53:46;;;;;;;0.13;0.13;;;;;;;;;;5095799;28;20541;-73
2021/07/14 11:56:12;;;;;;;0.32;0.32;;;;;;;;;;5095631;28;20047;-72
2021/07/14 11:58:47;;;;;;;0.10;0.10;;;;;;;;;;5095661;28;20134;-73
2021/07/14 12:01:17;;;;;;;0.25;0.25;;;;;;;;;;5095668;28;20040;-72
2021/07/14 12:04:04;;;;;;;0.63;0.30;;;;;;;;;;5095195;28;20044;-73
2021/07/14 12:06:39;;;;;;;1.27;0.20;;;;;;;;;;5094178;28;20498;-72
2021/07/14 12:09:24;;;;;;;0.20;0.20;;;;;;;;;;5095444;28;20131;-72
2021/07/14 12:11:51;;;;;;;0.20;0.20;;;;;;;;;;5095441;28;20194;-74
2021/07/14 12:14:26;;;;;;;0.30;0.30;;;;;;;;;;5095154;28;20044;-72
2021/07/14 12:16:57;;;;;;;0.20;0.20;;;;;;;;;;5094951;28;20063;-73
2021/07/14 12:19:28;;;;;;;0.30;0.30;;;;;;;;;;5094835;28;20047;-72
2021/07/14 12:21:54;;;;;;;;;;;;;;;;;;5095390;28;20054;-73
2021/07/14 12:24:31;;;;;;;0.47;0.20;;;;;;;;;;5095292;28;20006;-72
2021/07/14 12:26:59;;;;;;;0.20;0.20;;;;;;;;;;5095274;28;20093;-73
2021/07/14 12:29:25;;;;;;;0.68;0.28;;;;;;;;;;5095150;28;20075;-73
2021/07/14 12:31:51;;;;;;;0.10;0.10;;;;;;;;;;5095287;28;20051;-73
2021/07/14 12:34:27;;;;;;;0.10;0.10;;;;;;;;;;5093602;28;20032;-72
2021/07/14 12:36:54;;;;;;;0.20;0.20;;;;;;;;;;5094682;28;20036;-73
2021/07/14 12:39:24;;;;;;;0.20;0.20;;;;;;;;;;5094363;28;20048;-73
2021/07/14 12:41:51;;;;;;;0.22;0.22;;;;;;;;;;5094944;28;20048;-73
2021/07/14 12:44:18;;;;;;;0.20;0.20;;;;;;;;;;5093286;28;20036;-73
2021/07/14 12:46:44;;;;;;;0.25;0.25;;;;;;;;;;5094186;28;20032;-72
2021/07/14 12:49:14;;;;;;;0.38;0.38;;;;;;;;;;5094533;28;20085;-72
2021/07/14 12:51:57;;;;;;;0.30;0.30;;;;;;;;;;5094479;28;20364;-72
2021/07/14 12:54:23;;;;;;;0.20;0.20;;;;;;;;;;5094221;28;20047;-72
2021/07/14 12:56:49;;;;;;;0.28;0.28;;;;;;;;;;5094364;28;20039;-72
2021/07/14 12:59:15;;;;;;;0.10;0.10;;;;;;;;;;5094712;28;20048;-72
2021/07/14 13:01:45;;;;;;;0.20;0.20;;;;;;;;;;5094661;28;20044;-72
2021/07/14 13:04:14;;;;;;;0.20;0.20;;;;;;;;;;5094079;28;20127;-72
2021/07/14 13:06:41;;;;;;;0.13;0.13;;;;;;;;;;5094369;28;20036;-71
2021/07/14 13:09:08;;;;;;;0.20;0.20;;;;;;;;;;5094063;28;20471;-72
2021/07/14 13:11:34;;;;;;;0.20;0.20;;;;;;;;;;5094256;28;20046;-72
2021/07/14 13:14:01;;;;;;;0.10;0.10;;;;;;;;;;5094386;28;20098;-72
2021/07/14 13:16:28;;;;;;;0.22;0.22;;;;;;;;;;5094238;28;20044;-72
2021/07/14 13:18:59;;;;;;;0.20;0.20;;;;;;;;;;5093991;28;20047;-71
2021/07/14 13:21:27;;;;;;;0.25;0.25;;;;;;;;;;5093887;28;20510;-72
2021/07/14 13:24:03;;;;;;;0.20;0.20;;;;;;;;;;5094402;28;20028;-73
2021/07/14 13:26:29;;;;;;;0.30;0.30;;;;;;;;;;5094222;28;20403;-72
2021/07/14 13:28:55;;;;;;;0.30;0.30;;;;;;;;;;5094427;28;20575;-73
2021/07/14 13:31:33;;;;;;;0.22;0.22;;;;;;;;;;5094270;28;20066;-72
2021/07/14 13:34:07;;;;;;;0.20;0.20;;;;;;;;;;5094216;28;20047;-72
2021/07/14 13:36:38;;;;;;;0.20;0.20;;;;;;;;;;5094733;28;20051;-72
2021/07/14 13:39:28;;;;;;;0.30;0.30;;;;;;;;;;5094299;28;20036;-72
2021/07/14 13:41:57;;;;;;;0.20;0.20;;;;;;;;;;5094172;28;20121;-72
2021/07/14 13:44:31;;;;;;;0.20;0.20;;;;;;;;;;5094144;28;20040;-72
2021/07/14 13:47:02;;;;;;;0.10;0.10;;;;;;;;;;5093935;28;20036;-72
2021/07/14 13:49:29;;;;;;;;;;;;;;;;;;5094631;28;20118;-72
2021/07/14 13:51:58;;;;;;;0.20;0.20;;;;;;;;;;5094744;28;19908;-72
2021/07/14 13:54:27;;;;;;;0.22;0.22;;;;;;;;;;5094194;28;20028;-72
2021/07/14 13:56:53;;;;;;;0.20;0.20;;;;;;;;;;5093861;28;20490;-72
2021/07/14 13:59:26;;;;;;;0.10;0.10;;;;;;;;;;5095767;28;20044;-72
2021/07/14 14:02:12;;;;;;;0.20;0.20;;;;;;;;;;5097278;28;20085;-72
2021/07/14 14:04:41;;;;;;;0.10;0.10;;;;;;;;;;5097660;28;20062;-72
2021/07/14 14:07:08;;;;;;;0.10;0.10;;;;;;;;;;5097521;28;20501;-72
2021/07/14 14:09:34;;;;;;;0.25;0.25;;;;;;;;;;5097598;28;20044;-72
2021/07/14 14:12:20;;;;;;;0.25;0.25;;;;;;;;;;5097157;28;20052;-73
2021/07/14 14:14:46;;;;;;;0.10;0.10;;;;;;;;;;5097744;28;20110;-72
2021/07/14 14:17:12;;;;;;;0.10;0.10;;;;;;;;;;5097688;28;20097;-72
2021/07/14 14:19:38;;;;;;;0.10;0.10;;;;;;;;;;5097337;28;20054;-73
2021/07/14 14:22:05;;;;;;;0.30;0.30;;;;;;;;;;5097598;28;20051;-72
2021/07/14 14:24:32;;;;;;;0.10;0.10;;;;;;;;;;5097596;28;20040;-72
2021/07/14 14:27:04;;;;;;;0.10;0.10;;;;;;;;;;5097263;28;20455;-72
2021/07/14 14:29:30;;;;;;;0.38;0.38;;;;;;;;;;5097079;28;20043;-72
2021/07/14 14:31:57;;;;;;;0.20;0.20;;;;;;;;;;5097827;28;20032;-72
2021/07/14 14:34:23;;;;;;;0.20;0.20;;;;;;;;;;5097172;28;20047;-72
2021/07/14 14:36:49;;;;;;;0.30;0.30;;;;;;;;;;5097302;28;20039;-72
2021/07/14 14:39:15;;;;;;;0.65;0.65;;;;;;;;;;5096020;28;20047;-73
2021/07/14 14:41:42;;;;;;;0.63;0.32;;;;;;;;;;5096459;28;20538;-71
2021/07/14 14:44:08;;;;;;;0.10;0.10;;;;;;;;;;5095088;28;20035;-72
2021/07/14 14:46:35;;;;;;;0.10;0.10;;;;;;;;;;5095258;28;20036;-72
2021/07/14 14:49:01;;;;;;;0.10;0.10;;;;;;;;;;5095847;28;20085;-71
2021/07/14 14:51:28;;;;;;;0.13;0.13;;;;;;;;;;5095365;28;20052;-72
2021/07/14 14:53:54;;;;;;;0.25;0.25;;;;;;;;;;5096867;28;20042;-72
2021/07/14 14:56:20;;;;;;;0.22;0.22;;;;;;;;;;5096599;28;20039;-72